Maria — SV7156 — position and weather

sailwx.info

Track history (hours):
 
Tides and Currents Weather Stations Pressure Air Temp Water Temp Dewpoint Dewpoint Depression Visibility Wind Speed Wind Dir Waves Ship Positions

Maria

Last reported at 2015-Jan-31 16:10 UTC. Time now 2015-Feb-01 07:15 UTC.
Position N 37°58' E 023°35'.

Length 74 m; draft 4.5 m.

Type: Ship. MMSI: 237493000.

Date/timePositionNaut miles runAvg speedWind from/ knotsBaromVisibWave heightAir tempDewpointWater temp
2015-Jan-31 16:10N 37°58' E 023°35'0 0.0
2015-Jan-30 19:33N 37°58' E 023°35'0 0.0
2015-Jan-30 09:33N 37°58' E 023°35'0 0.0
2015-Jan-30 08:33N 37°58' E 023°35'1 0.9
2015-Jan-30 07:33N 37°57' E 023°36'0 0.0
2015-Jan-30 06:33N 37°57' E 023°36'0 0.0
2015-Jan-30 05:33N 37°57' E 023°36'0 0.0
2015-Jan-30 04:33N 37°57' E 023°36'0 0.0
2015-Jan-30 03:33N 37°57' E 023°36'0 0.2
2015-Jan-30 02:33N 37°57' E 023°36'6 6.1
2015-Jan-30 01:33N 37°52' E 023°32'0 0.0
2015-Jan-30 00:33N 37°52' E 023°32'0 0.0
2015-Jan-29 23:33N 37°52' E 023°32'0 0.0
2015-Jan-29 22:33N 37°52' E 023°32'0 0.1
2015-Jan-29 21:33N 37°52' E 023°32'0 0.1
2015-Jan-29 20:33N 37°52' E 023°32'0 0.0
2015-Jan-29 19:33N 37°52' E 023°32'2 2.5
2015-Jan-29 18:33N 37°54' E 023°33'3 0.7
2015-Jan-29 13:33N 37°58' E 023°33'5 4.4
2015-Jan-29 12:30N 38°02' E 023°32'0 0.2
2015-Jan-29 11:31N 38°02' E 023°32'3 3.3
2015-Jan-29 10:32N 38°02' E 023°36'0 0.0
2015-Jan-29 09:33N 38°02' E 023°36'0 0.0
2015-Jan-29 08:33N 38°02' E 023°36'0 0.0
2015-Jan-29 07:25N 38°02' E 023°36'0 0.0
2015-Jan-29 06:33N 38°02' E 023°36'0 0.0
2015-Jan-29 05:33N 38°02' E 023°36'0 0.0
2015-Jan-29 04:31N 38°02' E 023°36'0 0.0
2015-Jan-29 03:33N 38°02' E 023°36'0 0.0
2015-Jan-29 02:33N 38°02' E 023°36'0 0.0
2015-Jan-29 01:33N 38°02' E 023°36'1 0.7
2015-Jan-29 00:33N 38°02' E 023°35'0 0.0
2015-Jan-28 23:33N 38°02' E 023°35'0 0.0
2015-Jan-28 22:33N 38°02' E 023°35'0 0.0
2015-Jan-28 21:33N 38°02' E 023°35'0 0.1
2015-Jan-28 20:33N 38°02' E 023°35'0 0.1
2015-Jan-28 19:33N 38°02' E 023°35'0 0.0
2015-Jan-28 18:33N 38°02' E 023°35'0 0.0
2015-Jan-28 17:33N 38°02' E 023°35'4 3.8
2015-Jan-28 16:33N 37°58' E 023°33'3 2.7
2015-Jan-28 15:33N 37°55' E 023°33'0 0.3
2015-Jan-28 14:33N 37°56' E 023°33'3 2.5
2015-Jan-28 13:33N 37°58' E 023°35'2 0.1
2015-Jan-27 18:33N 37°55' E 023°34'1 0.6
2015-Jan-27 17:33N 37°55' E 023°33'1 0.5
2015-Jan-27 16:33N 37°56' E 023°33'2 2.3
2015-Jan-27 15:33N 37°58' E 023°35'0 0.0
2015-Jan-27 14:33N 37°58' E 023°35'3 3.3
2015-Jan-27 13:33N 38°01' E 023°33'2 1.5
2015-Jan-27 12:33N 38°02' E 023°32'0 0.0
2015-Jan-27 11:33N 38°02' E 023°32'2 1.8
2015-Jan-27 10:33N 38°01' E 023°30'1 0.5
2015-Jan-27 09:33N 38°01' E 023°31'5 0.3
2015-Jan-26 18:33N 37°57' E 023°35'4 4.1
2015-Jan-26 17:33N 37°53' E 023°33'0 0.1
2015-Jan-26 16:33N 37°53' E 023°33'0 0.0
2015-Jan-26 15:33N 37°53' E 023°33'0 0.3
2015-Jan-26 14:33N 37°54' E 023°32'0 0.0
2015-Jan-26 13:33N 37°54' E 023°32'0 0.1
2015-Jan-26 12:34N 37°54' E 023°32'2 1.7
2015-Jan-26 11:33N 37°55' E 023°33'0 0.0
2015-Jan-26 10:33N 37°55' E 023°33'0 0.0
2015-Jan-26 09:33N 37°55' E 023°33'3 3.2
2015-Jan-26 08:33N 37°57' E 023°36'0 0.0
2015-Jan-26 07:33N 37°57' E 023°36'0 0.0
2015-Jan-26 06:33N 37°57' E 023°36'1 1.0
2015-Jan-26 05:34N 37°58' E 023°35'0 0.0
2015-Jan-25 11:20N 37°58' E 023°35'1 1.2
2015-Jan-25 10:33N 37°57' E 023°36'0 0.0
2015-Jan-25 09:33N 37°57' E 023°36'0 0.0
2015-Jan-25 08:32N 37°57' E 023°36'0 0.0
2015-Jan-25 07:30N 37°57' E 023°36'0 0.0
2015-Jan-25 06:33N 37°57' E 023°36'0 0.0
2015-Jan-25 05:33N 37°57' E 023°36'1 0.9
2015-Jan-25 04:33N 37°58' E 023°35'0 0.0
2015-Jan-24 14:27N 37°58' E 023°35'3 3.2
2015-Jan-24 13:33N 38°00' E 023°33'2 2.4
2015-Jan-24 12:33N 38°02' E 023°36'0 0.0
2015-Jan-24 11:33N 38°02' E 023°36'0 0.0
2015-Jan-24 10:33N 38°02' E 023°36'1 0.8
2015-Jan-24 09:34N 38°01' E 023°35'0 0.0
2015-Jan-24 08:34N 38°01' E 023°35'0 0.0
2015-Jan-24 07:34N 38°01' E 023°35'0 0.0
2015-Jan-24 06:34N 38°01' E 023°35'1 1.4
2015-Jan-24 05:34N 38°00' E 023°33'3 0.2
2015-Jan-23 12:33N 37°58' E 023°35'1 0.6
2015-Jan-23 11:33N 37°57' E 023°35'0 0.0
2015-Jan-23 10:33N 37°57' E 023°35'0 0.0
2015-Jan-23 09:33N 37°57' E 023°35'0 0.0
2015-Jan-23 08:33N 37°57' E 023°35'1 0.6
2015-Jan-23 07:33N 37°58' E 023°35'0 0.1
2015-Jan-23 06:33N 37°58' E 023°35'3 3.0
2015-Jan-23 05:33N 38°00' E 023°33'1 1.3
2015-Jan-23 04:33N 38°02' E 023°34'0 0.0
2015-Jan-23 03:33N 38°02' E 023°34'0 0.0
2015-Jan-23 02:33N 38°02' E 023°34'0 0.0
2015-Jan-23 01:33N 38°02' E 023°34'0 0.0
2015-Jan-23 00:33N 38°02' E 023°34'1 0.9
2015-Jan-22 23:33N 38°02' E 023°35'0 0.2
2015-Jan-22 22:33N 38°02' E 023°36'0 0.0
2015-Jan-22 21:33N 38°02' E 023°36'0 0.0
2015-Jan-22 20:33N 38°02' E 023°36'0 0.0
2015-Jan-22 19:33N 38°02' E 023°36'0 0.0
2015-Jan-22 18:33N 38°02' E 023°36'0 0.1
2015-Jan-22 17:33N 38°02' E 023°36'3 3.2
2015-Jan-22 16:33N 38°01' E 023°32'0 0.3
2015-Jan-22 15:33N 38°01' E 023°32'0 0.0
2015-Jan-22 14:33N 38°01' E 023°32'0 0.0
2015-Jan-22 13:28N 38°01' E 023°32'0 0.0
2015-Jan-22 12:31N 38°01' E 023°32'0 0.1
2015-Jan-22 09:11N 38°01' E 023°32'0 0.0
2015-Jan-22 08:24N 38°01' E 023°32'0 0.0
2015-Jan-22 07:33N 38°01' E 023°32'0 0.0
2015-Jan-22 06:33N 38°01' E 023°32'1 0.7
2015-Jan-22 05:33N 38°00' E 023°32'  
Track history (hours):
 
Tides and Currents Weather Stations Pressure Air Temp Water Temp Dewpoint Dewpoint Depression Visibility Wind Speed Wind Dir Waves Ship Positions

Maria

Last reported at 2015-Jan-31 16:10 UTC. Time now 2015-Feb-01 07:15 UTC.
Position N 37°58' E 023°35'.

Length 74 m; draft 4.5 m.

Type: Ship. MMSI: 237493000.

Date/timePositionNaut miles runAvg speedWind from/ knotsBaromVisibWave heightAir tempDewpointWater temp
2015-Jan-31 16:10N 37°58' E 023°35'0 0.0
2015-Jan-30 19:33N 37°58' E 023°35'0 0.0
2015-Jan-30 09:33N 37°58' E 023°35'0 0.0
2015-Jan-30 08:33N 37°58' E 023°35'1 0.9
2015-Jan-30 07:33N 37°57' E 023°36'0 0.0
2015-Jan-30 06:33N 37°57' E 023°36'0 0.0
2015-Jan-30 05:33N 37°57' E 023°36'0 0.0
2015-Jan-30 04:33N 37°57' E 023°36'0 0.0
2015-Jan-30 03:33N 37°57' E 023°36'0 0.2
2015-Jan-30 02:33N 37°57' E 023°36'6 6.1
2015-Jan-30 01:33N 37°52' E 023°32'0 0.0
2015-Jan-30 00:33N 37°52' E 023°32'0 0.0
2015-Jan-29 23:33N 37°52' E 023°32'0 0.0
2015-Jan-29 22:33N 37°52' E 023°32'0 0.1
2015-Jan-29 21:33N 37°52' E 023°32'0 0.1
2015-Jan-29 20:33N 37°52' E 023°32'0 0.0
2015-Jan-29 19:33N 37°52' E 023°32'2 2.5
2015-Jan-29 18:33N 37°54' E 023°33'3 0.7
2015-Jan-29 13:33N 37°58' E 023°33'5 4.4
2015-Jan-29 12:30N 38°02' E 023°32'0 0.2
2015-Jan-29 11:31N 38°02' E 023°32'3 3.3
2015-Jan-29 10:32N 38°02' E 023°36'0 0.0
2015-Jan-29 09:33N 38°02' E 023°36'0 0.0
2015-Jan-29 08:33N 38°02' E 023°36'0 0.0
2015-Jan-29 07:25N 38°02' E 023°36'0 0.0
2015-Jan-29 06:33N 38°02' E 023°36'0 0.0
2015-Jan-29 05:33N 38°02' E 023°36'0 0.0
2015-Jan-29 04:31N 38°02' E 023°36'0 0.0
2015-Jan-29 03:33N 38°02' E 023°36'0 0.0
2015-Jan-29 02:33N 38°02' E 023°36'0 0.0
2015-Jan-29 01:33N 38°02' E 023°36'1 0.7
2015-Jan-29 00:33N 38°02' E 023°35'0 0.0
2015-Jan-28 23:33N 38°02' E 023°35'0 0.0
2015-Jan-28 22:33N 38°02' E 023°35'0 0.0
2015-Jan-28 21:33N 38°02' E 023°35'0 0.1
2015-Jan-28 20:33N 38°02' E 023°35'0 0.1
2015-Jan-28 19:33N 38°02' E 023°35'0 0.0
2015-Jan-28 18:33N 38°02' E 023°35'0 0.0
2015-Jan-28 17:33N 38°02' E 023°35'4 3.8
2015-Jan-28 16:33N 37°58' E 023°33'3 2.7
2015-Jan-28 15:33N 37°55' E 023°33'0 0.3
2015-Jan-28 14:33N 37°56' E 023°33'3 2.5
2015-Jan-28 13:33N 37°58' E 023°35'2 0.1
2015-Jan-27 18:33N 37°55' E 023°34'1 0.6
2015-Jan-27 17:33N 37°55' E 023°33'1 0.5
2015-Jan-27 16:33N 37°56' E 023°33'2 2.3
2015-Jan-27 15:33N 37°58' E 023°35'0 0.0
2015-Jan-27 14:33N 37°58' E 023°35'3 3.3
2015-Jan-27 13:33N 38°01' E 023°33'2 1.5
2015-Jan-27 12:33N 38°02' E 023°32'0 0.0
2015-Jan-27 11:33N 38°02' E 023°32'2 1.8
2015-Jan-27 10:33N 38°01' E 023°30'1 0.5
2015-Jan-27 09:33N 38°01' E 023°31'5 0.3
2015-Jan-26 18:33N 37°57' E 023°35'4 4.1
2015-Jan-26 17:33N 37°53' E 023°33'0 0.1
2015-Jan-26 16:33N 37°53' E 023°33'0 0.0
2015-Jan-26 15:33N 37°53' E 023°33'0 0.3
2015-Jan-26 14:33N 37°54' E 023°32'0 0.0
2015-Jan-26 13:33N 37°54' E 023°32'0 0.1
2015-Jan-26 12:34N 37°54' E 023°32'2 1.7
2015-Jan-26 11:33N 37°55' E 023°33'0 0.0
2015-Jan-26 10:33N 37°55' E 023°33'0 0.0
2015-Jan-26 09:33N 37°55' E 023°33'3 3.2
2015-Jan-26 08:33N 37°57' E 023°36'0 0.0
2015-Jan-26 07:33N 37°57' E 023°36'0 0.0
2015-Jan-26 06:33N 37°57' E 023°36'1 1.0
2015-Jan-26 05:34N 37°58' E 023°35'0 0.0
2015-Jan-25 11:20N 37°58' E 023°35'1 1.2
2015-Jan-25 10:33N 37°57' E 023°36'0 0.0
2015-Jan-25 09:33N 37°57' E 023°36'0 0.0
2015-Jan-25 08:32N 37°57' E 023°36'0 0.0
2015-Jan-25 07:30N 37°57' E 023°36'0 0.0
2015-Jan-25 06:33N 37°57' E 023°36'0 0.0
2015-Jan-25 05:33N 37°57' E 023°36'1 0.9
2015-Jan-25 04:33N 37°58' E 023°35'0 0.0
2015-Jan-24 14:27N 37°58' E 023°35'3 3.2
2015-Jan-24 13:33N 38°00' E 023°33'2 2.4
2015-Jan-24 12:33N 38°02' E 023°36'0 0.0
2015-Jan-24 11:33N 38°02' E 023°36'0 0.0
2015-Jan-24 10:33N 38°02' E 023°36'1 0.8
2015-Jan-24 09:34N 38°01' E 023°35'0 0.0
2015-Jan-24 08:34N 38°01' E 023°35'0 0.0
2015-Jan-24 07:34N 38°01' E 023°35'0 0.0
2015-Jan-24 06:34N 38°01' E 023°35'1 1.4
2015-Jan-24 05:34N 38°00' E 023°33'3 0.2
2015-Jan-23 12:33N 37°58' E 023°35'1 0.6
2015-Jan-23 11:33N 37°57' E 023°35'0 0.0
2015-Jan-23 10:33N 37°57' E 023°35'0 0.0
2015-Jan-23 09:33N 37°57' E 023°35'0 0.0
2015-Jan-23 08:33N 37°57' E 023°35'1 0.6
2015-Jan-23 07:33N 37°58' E 023°35'0 0.1
2015-Jan-23 06:33N 37°58' E 023°35'3 3.0
2015-Jan-23 05:33N 38°00' E 023°33'1 1.3
2015-Jan-23 04:33N 38°02' E 023°34'0 0.0
2015-Jan-23 03:33N 38°02' E 023°34'0 0.0
2015-Jan-23 02:33N 38°02' E 023°34'0 0.0
2015-Jan-23 01:33N 38°02' E 023°34'0 0.0
2015-Jan-23 00:33N 38°02' E 023°34'1 0.9
2015-Jan-22 23:33N 38°02' E 023°35'0 0.2
2015-Jan-22 22:33N 38°02' E 023°36'0 0.0
2015-Jan-22 21:33N 38°02' E 023°36'0 0.0
2015-Jan-22 20:33N 38°02' E 023°36'0 0.0
2015-Jan-22 19:33N 38°02' E 023°36'0 0.0
2015-Jan-22 18:33N 38°02' E 023°36'0 0.1
2015-Jan-22 17:33N 38°02' E 023°36'3 3.2
2015-Jan-22 16:33N 38°01' E 023°32'0 0.3
2015-Jan-22 15:33N 38°01' E 023°32'0 0.0
2015-Jan-22 14:33N 38°01' E 023°32'0 0.0
2015-Jan-22 13:28N 38°01' E 023°32'0 0.0
2015-Jan-22 12:31N 38°01' E 023°32'0 0.1
2015-Jan-22 09:11N 38°01' E 023°32'0 0.0
2015-Jan-22 08:24N 38°01' E 023°32'0 0.0
2015-Jan-22 07:33N 38°01' E 023°32'0 0.0
2015-Jan-22 06:33N 38°01' E 023°32'1 0.7
2015-Jan-22 05:33N 38°00' E 023°32'  

Dump ship's entire track history